createdAt,value
2018-09-21T00:02:21.811Z,12.20
2018-09-21T00:04:50.298Z,11.80
2018-09-21T00:07:18.477Z,10.87
2018-09-21T00:09:46.966Z,13.47
2018-09-21T00:12:15.170Z,12.23
2018-09-21T00:14:43.754Z,8.70
2018-09-21T00:17:11.935Z,12.50
2018-09-21T00:19:40.138Z,12.43
2018-09-21T00:22:08.342Z,9.53
2018-09-21T00:24:36.674Z,10.67
2018-09-21T00:27:04.974Z,16.37
2018-09-21T00:29:33.154Z,12.07
2018-09-21T00:32:02.259Z,11.03
2018-09-21T00:34:30.618Z,10.63
2018-09-21T00:36:59.133Z,12.67
2018-09-21T00:39:27.331Z,11.57
2018-09-21T00:41:55.515Z,11.10
2018-09-21T00:44:23.726Z,13.77
2018-09-21T00:46:51.926Z,15.10
2018-09-21T00:49:20.122Z,16.67
2018-09-21T00:51:48.379Z,18.20
2018-09-21T00:54:16.578Z,13.90
2018-09-21T00:56:44.902Z,12.87
2018-09-21T00:59:13.094Z,11.50
2018-09-21T01:01:41.306Z,16.07
2018-09-21T01:04:09.490Z,16.30
2018-09-21T01:06:37.659Z,13.90
2018-09-21T01:09:08.142Z,16.57
2018-09-21T01:11:36.331Z,10.73
2018-09-21T01:16:55.281Z,16.40
2018-09-21T01:19:23.471Z,14.83
2018-09-21T01:21:51.646Z,18.30
2018-09-21T01:24:19.806Z,14.53
2018-09-21T01:26:48.041Z,15.53
2018-09-21T01:29:16.766Z,12.27
2018-09-21T01:31:44.930Z,11.33
2018-09-21T01:34:13.666Z,14.40
2018-09-21T01:36:41.889Z,14.13
2018-09-21T01:39:10.838Z,16.70
2018-09-21T01:41:39.486Z,16.37
2018-09-21T01:44:08.485Z,16.43
2018-09-21T01:46:36.792Z,14.63
2018-09-21T01:49:05.030Z,23.60
2018-09-21T01:51:33.235Z,19.67
2018-09-21T01:54:01.691Z,17.87
2018-09-21T01:56:29.955Z,15.90
2018-09-21T01:58:59.969Z,11.93
2018-09-21T02:01:28.683Z,14.60
2018-09-21T02:03:56.916Z,13.93
2018-09-21T02:06:25.151Z,17.30
2018-09-21T02:08:53.338Z,17.40
2018-09-21T02:11:21.533Z,18.87
2018-09-21T02:13:50.003Z,17.37
2018-09-21T02:16:18.223Z,17.90
2018-09-21T02:18:46.434Z,13.63
2018-09-21T02:21:14.636Z,15.40
2018-09-21T02:23:42.826Z,18.33
2018-09-21T02:26:11.050Z,20.13
2018-09-21T02:28:39.278Z,17.97
2018-09-21T02:31:07.478Z,13.53
2018-09-21T02:33:35.639Z,17.83
2018-09-21T02:36:03.807Z,15.73
2018-09-21T02:38:32.568Z,20.43
2018-09-21T02:41:01.164Z,16.83
2018-09-21T02:43:29.310Z,20.87
2018-09-21T02:45:57.587Z,19.30
2018-09-21T02:48:26.306Z,16.30
2018-09-21T02:50:54.496Z,15.73
2018-09-21T02:53:22.687Z,17.87
2018-09-21T02:55:50.894Z,18.70
2018-09-21T02:58:19.082Z,22.40
2018-09-21T03:00:47.380Z,19.27
2018-09-21T03:03:15.614Z,17.30
2018-09-21T03:05:44.529Z,22.70
2018-09-21T03:08:12.754Z,20.33
2018-09-21T03:10:40.937Z,16.87
2018-09-21T03:13:09.204Z,17.03
2018-09-21T03:15:37.314Z,22.33
2018-09-21T03:18:05.562Z,19.00
2018-09-21T03:20:33.736Z,22.47
2018-09-21T03:23:01.899Z,22.07
2018-09-21T03:25:30.118Z,19.53
2018-09-21T03:27:58.291Z,21.07
2018-09-21T03:30:26.498Z,18.80
2018-09-21T03:32:54.693Z,17.93
2018-09-21T03:35:22.970Z,21.33
2018-09-21T03:37:51.122Z,18.77
2018-09-21T03:40:19.291Z,20.00
2018-09-21T03:42:47.511Z,22.73
2018-09-21T03:45:15.914Z,20.37
2018-09-21T03:47:44.122Z,17.83
2018-09-21T03:50:12.439Z,21.67
2018-09-21T03:52:40.880Z,18.03
2018-09-21T03:55:09.030Z,18.37
2018-09-21T03:57:37.224Z,22.07
2018-09-21T04:00:06.466Z,22.33
2018-09-21T04:02:34.917Z,22.37
2018-09-21T04:05:03.158Z,20.43
2018-09-21T04:07:31.482Z,20.20
2018-09-21T04:09:59.900Z,21.73
2018-09-21T04:12:28.866Z,22.83
2018-09-21T04:14:57.141Z,20.97
2018-09-21T04:17:25.361Z,20.73
2018-09-21T04:19:53.597Z,17.87
2018-09-21T04:22:21.838Z,23.83
2018-09-21T04:24:50.566Z,16.77
2018-09-21T04:27:18.753Z,18.43
2018-09-21T04:29:46.978Z,25.20
2018-09-21T04:32:15.418Z,18.97
2018-09-21T04:34:43.666Z,26.80
2018-09-21T04:37:11.847Z,23.77
2018-09-21T04:39:40.059Z,23.63
2018-09-21T04:42:08.270Z,19.40
2018-09-21T04:44:36.441Z,24.37
2018-09-21T04:47:04.874Z,18.73
2018-09-21T04:49:33.071Z,22.97
2018-09-21T04:52:01.271Z,22.90
2018-09-21T04:54:29.461Z,21.03
2018-09-21T04:56:57.631Z,20.60
2018-09-21T04:59:25.849Z,20.60
2018-09-21T05:01:53.994Z,19.10
2018-09-21T05:04:22.194Z,24.30
2018-09-21T05:06:50.383Z,17.93
2018-09-21T05:09:18.622Z,21.00
2018-09-21T05:11:46.824Z,25.73
2018-09-21T05:14:15.398Z,19.37
2018-09-21T05:16:43.617Z,22.83
2018-09-21T05:19:11.802Z,18.30
2018-09-21T05:21:40.021Z,18.27
2018-09-21T05:24:08.562Z,18.90
2018-09-21T05:26:37.050Z,14.17
2018-09-21T05:29:05.645Z,23.27
2018-09-21T05:31:33.846Z,19.33
2018-09-21T05:34:02.101Z,24.30
2018-09-21T05:36:30.291Z,22.03
2018-09-21T05:38:58.539Z,19.80
2018-09-21T05:41:26.742Z,18.57
2018-09-21T05:43:54.983Z,20.63
2018-09-21T05:46:23.782Z,19.67
2018-09-21T05:48:51.970Z,22.07
2018-09-21T05:51:20.261Z,14.60
2018-09-21T05:53:48.455Z,15.80
2018-09-21T05:56:16.679Z,13.97
2018-09-21T05:58:44.871Z,18.20
2018-09-21T06:01:13.034Z,23.57
2018-09-21T06:03:41.223Z,16.67
2018-09-21T06:06:09.409Z,14.77
2018-09-21T06:08:37.591Z,18.83
2018-09-21T06:11:05.820Z,16.27
2018-09-21T06:13:34.083Z,19.10
2018-09-21T06:16:02.250Z,14.40
2018-09-21T06:18:30.458Z,19.45
2018-09-21T06:20:58.679Z,15.58
2018-09-21T06:23:27.323Z,15.75
2018-09-21T06:25:55.537Z,13.38
2018-09-21T06:28:23.835Z,14.35
2018-09-21T06:30:52.027Z,12.75
2018-09-21T06:33:20.237Z,11.68
2018-09-21T06:35:48.464Z,12.40
2018-09-21T06:38:16.922Z,12.03
2018-09-21T06:40:45.965Z,15.53
2018-09-21T06:43:14.146Z,15.08
2018-09-21T06:45:42.327Z,12.68
2018-09-21T06:48:10.495Z,13.20
2018-09-21T06:50:38.698Z,14.87
2018-09-21T06:53:06.934Z,15.98
2018-09-21T06:55:35.108Z,13.72
2018-09-21T06:58:03.265Z,10.38
2018-09-21T07:00:31.493Z,15.40
2018-09-21T07:02:59.954Z,15.72
2018-09-21T07:05:28.159Z,12.55
2018-09-21T07:07:56.347Z,13.13
2018-09-21T07:10:24.986Z,11.60
2018-09-21T07:12:53.594Z,16.15
2018-09-21T07:15:21.827Z,11.93
2018-09-21T07:17:50.110Z,8.33
2018-09-21T07:20:18.275Z,10.45
2018-09-21T07:22:46.661Z,15.32
2018-09-21T07:25:14.790Z,12.23
2018-09-21T07:27:42.974Z,10.30
2018-09-21T07:30:11.149Z,12.10
2018-09-21T07:32:39.407Z,12.28
2018-09-21T07:35:07.964Z,11.68
2018-09-21T07:37:36.222Z,11.53
2018-09-21T07:40:04.754Z,13.95
2018-09-21T07:42:32.958Z,15.83
2018-09-21T07:45:01.134Z,16.02
2018-09-21T07:47:29.352Z,14.90
2018-09-21T07:49:57.570Z,10.88
2018-09-21T07:52:25.754Z,21.20
2018-09-21T07:54:53.950Z,9.90
2018-09-21T07:57:22.170Z,10.95
2018-09-21T07:59:50.354Z,10.88
2018-09-21T08:02:18.510Z,9.08
2018-09-21T08:04:46.798Z,15.53
2018-09-21T08:07:15.053Z,9.98
2018-09-21T08:09:43.210Z,10.08
2018-09-21T08:12:11.477Z,12.85
2018-09-21T08:14:40.403Z,9.40
2018-09-21T08:17:08.639Z,10.35
2018-09-21T08:19:37.736Z,12.53
2018-09-21T08:22:05.900Z,17.00
2018-09-21T08:24:34.110Z,15.90
2018-09-21T08:27:02.305Z,11.85
2018-09-21T08:29:30.735Z,10.88
2018-09-21T08:31:59.119Z,7.78
2018-09-21T08:34:27.330Z,11.28
2018-09-21T08:36:55.790Z,11.85
2018-09-21T08:39:23.974Z,8.75
2018-09-21T08:41:53.257Z,8.60
2018-09-21T08:44:21.420Z,12.47
2018-09-21T08:46:49.586Z,6.60
2018-09-21T08:49:18.305Z,8.05
2018-09-21T08:51:46.470Z,11.25
2018-09-21T08:54:14.879Z,11.00
2018-09-21T08:56:43.042Z,7.67
2018-09-21T08:59:11.226Z,10.72
2018-09-21T09:01:39.466Z,8.95
2018-09-21T09:04:07.828Z,8.23
2018-09-21T09:06:36.080Z,5.60
2018-09-21T09:09:07.002Z,7.45
2018-09-21T09:11:36.290Z,14.53
2018-09-21T09:14:04.498Z,6.35
2018-09-21T09:16:32.696Z,11.57
2018-09-21T09:19:00.856Z,4.95
2018-09-21T09:21:29.090Z,10.18
2018-09-21T09:23:57.323Z,10.32
2018-09-21T09:26:25.570Z,12.47
2018-09-21T09:28:53.750Z,11.95
2018-09-21T09:31:21.926Z,5.80
2018-09-21T09:33:50.142Z,7.47
2018-09-21T09:36:18.434Z,6.72
2018-09-21T09:38:46.794Z,8.40
2018-09-21T09:41:14.973Z,8.25
2018-09-21T09:43:43.189Z,9.68
2018-09-21T09:46:11.351Z,10.60
2018-09-21T09:48:39.558Z,11.53
2018-09-21T09:51:08.094Z,5.10
2018-09-21T09:53:36.643Z,6.65
2018-09-21T09:56:04.806Z,8.20
2018-09-21T09:58:33.070Z,9.08
2018-09-21T10:01:01.525Z,6.03
2018-09-21T10:03:29.860Z,14.30
2018-09-21T10:05:58.014Z,8.98
2018-09-21T10:08:26.205Z,8.60
2018-09-21T10:10:54.398Z,9.45
2018-09-21T10:13:22.598Z,11.95
2018-09-21T10:15:50.778Z,19.05
2018-09-21T10:18:18.998Z,15.05
2018-09-21T10:20:47.277Z,8.05
2018-09-21T10:23:15.436Z,3.52
2018-09-21T10:25:43.636Z,5.00
2018-09-21T10:28:11.966Z,5.90
2018-09-21T10:30:39.999Z,5.70
2018-09-21T10:33:08.305Z,7.55
2018-09-21T10:35:36.395Z,6.17
2018-09-21T10:38:04.563Z,3.92
2018-09-21T10:40:32.989Z,10.18
2018-09-21T10:43:04.527Z,5.65
2018-09-21T10:45:32.703Z,7.87
2018-09-21T10:48:00.882Z,8.38
2018-09-21T10:50:29.095Z,4.03
2018-09-21T10:52:57.317Z,6.72
2018-09-21T10:55:25.498Z,5.87
2018-09-21T10:57:53.650Z,9.63
2018-09-21T11:00:21.843Z,4.62
2018-09-21T11:02:50.034Z,2.95
2018-09-21T11:05:18.234Z,6.20
2018-09-21T11:07:46.746Z,6.67
2018-09-21T11:10:14.922Z,4.50
2018-09-21T11:12:43.070Z,4.55
2018-09-21T11:15:11.265Z,3.98
2018-09-21T11:17:40.403Z,2.87
2018-09-21T11:20:08.566Z,7.90
2018-09-21T11:22:36.762Z,5.67
2018-09-21T11:25:04.954Z,6.40
2018-09-21T11:27:33.142Z,2.58
2018-09-21T11:30:01.547Z,4.17
2018-09-21T11:32:29.823Z,5.05
2018-09-21T11:34:58.026Z,3.67
2018-09-21T11:37:26.302Z,26.77
2018-09-21T11:39:54.594Z,17.10
2018-09-21T11:42:22.807Z,12.98
2018-09-21T11:44:51.343Z,7.72
2018-09-21T11:47:19.638Z,6.65
2018-09-21T11:49:47.730Z,5.85
2018-09-21T11:52:15.983Z,4.42
2018-09-21T11:54:44.162Z,6.40
2018-09-21T11:57:18.826Z,9.85
2018-09-21T11:59:47.038Z,6.72
2018-09-21T12:02:15.978Z,28.05
2018-09-21T12:04:44.166Z,8.85
2018-09-21T12:07:13.852Z,12.43
2018-09-21T12:09:42.062Z,13.15
2018-09-21T12:12:10.334Z,17.05
2018-09-21T12:14:38.505Z,10.08
2018-09-21T12:17:06.931Z,17.07
2018-09-21T12:19:35.006Z,10.48
2018-09-21T12:22:03.272Z,3.60
2018-09-21T12:24:31.477Z,7.37
2018-09-21T12:26:59.882Z,11.68
2018-09-21T12:29:28.058Z,8.73
2018-09-21T12:31:56.286Z,4.45
2018-09-21T12:34:24.531Z,6.00
2018-09-21T12:36:52.991Z,7.22
2018-09-21T12:39:21.194Z,5.87
2018-09-21T12:41:49.409Z,3.72
2018-09-21T12:44:18.148Z,6.78
2018-09-21T12:46:46.326Z,3.00
2018-09-21T12:49:14.514Z,1.98
2018-09-21T12:51:43.202Z,2.85
2018-09-21T12:54:11.406Z,3.83
2018-09-21T12:56:39.671Z,7.87
2018-09-21T12:59:07.840Z,2.67
2018-09-21T13:01:36.026Z,5.67
2018-09-21T13:04:05.048Z,4.70
2018-09-21T13:06:33.642Z,5.53
2018-09-21T13:09:01.948Z,5.45
2018-09-21T13:11:30.118Z,4.40
2018-09-21T13:13:58.280Z,11.93
2018-09-21T13:16:26.482Z,4.72
2018-09-21T13:18:54.674Z,0.47
2018-09-21T13:21:22.854Z,0.40
2018-09-21T13:23:51.023Z,2.63
2018-09-21T13:26:19.265Z,1.20
2018-09-21T13:28:48.303Z,1.50
2018-09-21T13:31:20.490Z,2.13
2018-09-21T13:33:48.714Z,4.03
2018-09-21T13:36:16.870Z,3.13
2018-09-21T13:38:45.400Z,3.93
2018-09-21T13:41:13.597Z,0.93
2018-09-21T13:43:41.802Z,2.53
2018-09-21T13:46:09.994Z,0.67
2018-09-21T13:48:38.526Z,0.90
2018-09-21T13:51:06.977Z,3.17
2018-09-21T13:53:35.162Z,1.37
2018-09-21T13:56:03.362Z,6.10
2018-09-21T13:58:31.751Z,0.63
2018-09-21T14:00:59.956Z,3.47
2018-09-21T14:03:28.134Z,2.27
2018-09-21T14:05:56.659Z,2.50
2018-09-21T14:08:24.547Z,2.90
2018-09-21T14:10:52.843Z,3.17
2018-09-21T14:13:21.490Z,3.00
2018-09-21T14:15:49.683Z,3.70
2018-09-21T14:18:17.882Z,3.87
2018-09-21T14:20:46.077Z,4.50
2018-09-21T14:23:14.305Z,2.70
2018-09-21T14:25:42.510Z,4.37
2018-09-21T14:28:10.721Z,4.40
2018-09-21T14:30:38.994Z,3.97
2018-09-21T14:33:07.306Z,1.50
2018-09-21T14:35:35.483Z,4.80
2018-09-21T14:38:03.702Z,4.13
2018-09-21T14:40:31.906Z,1.97
2018-09-21T14:43:00.138Z,3.77
2018-09-21T14:45:28.301Z,2.67
2018-09-21T14:47:57.395Z,1.00
2018-09-21T14:50:25.966Z,4.60
2018-09-21T14:52:54.562Z,1.47
2018-09-21T14:55:23.250Z,2.17
2018-09-21T14:57:51.422Z,1.40
2018-09-21T15:00:19.888Z,3.30
2018-09-21T15:02:48.014Z,4.17
2018-09-21T15:05:16.393Z,2.60
2018-09-21T15:07:44.569Z,4.93
2018-09-21T15:10:12.806Z,2.97
2018-09-21T15:12:43.741Z,12.00
2018-09-21T15:15:11.960Z,2.50
2018-09-21T15:17:40.346Z,4.10
2018-09-21T15:20:08.612Z,5.00
2018-09-21T15:22:37.706Z,9.60
2018-09-21T15:25:09.486Z,5.30
2018-09-21T15:27:37.710Z,2.93
2018-09-21T15:30:05.979Z,4.37
2018-09-21T15:32:34.174Z,4.30
2018-09-21T15:35:02.354Z,2.17
2018-09-21T15:37:30.786Z,4.43
2018-09-21T15:39:59.186Z,1.27
2018-09-21T15:42:27.372Z,2.73
2018-09-21T15:44:55.592Z,3.47
2018-09-21T15:47:23.799Z,3.55
2018-09-21T15:49:51.978Z,2.47
2018-09-21T15:52:20.578Z,2.90
2018-09-21T15:54:48.782Z,4.25
2018-09-21T15:57:16.938Z,3.35
2018-09-21T15:59:45.326Z,3.10
2018-09-21T16:02:13.498Z,5.50
2018-09-21T16:04:41.678Z,4.12
2018-09-21T16:07:10.692Z,4.10
2018-09-21T16:09:39.359Z,1.67
2018-09-21T16:12:07.550Z,5.03
2018-09-21T16:14:35.754Z,3.33
2018-09-21T16:17:03.959Z,6.13
2018-09-21T16:19:32.183Z,7.87
2018-09-21T16:22:00.362Z,2.50
2018-09-21T16:24:28.546Z,3.23
2018-09-21T16:26:56.746Z,4.23
2018-09-21T16:29:24.944Z,3.37
2018-09-21T16:31:53.138Z,3.67
2018-09-21T16:34:21.354Z,2.40
2018-09-21T16:36:49.900Z,4.17
2018-09-21T16:39:18.177Z,6.17
2018-09-21T16:41:46.301Z,3.83
2018-09-21T16:44:14.514Z,2.83
2018-09-21T16:46:42.662Z,3.57
2018-09-21T16:49:11.590Z,4.73
2018-09-21T16:51:39.799Z,2.80
2018-09-21T16:54:08.023Z,3.20
2018-09-21T16:56:39.219Z,2.17
2018-09-21T16:59:07.414Z,3.33
2018-09-21T17:01:35.618Z,4.10
2018-09-21T17:04:03.824Z,4.57
2018-09-21T17:06:31.990Z,4.63
2018-09-21T17:09:00.331Z,1.43
2018-09-21T17:11:28.587Z,4.80
2018-09-21T17:13:56.784Z,1.83
2018-09-21T17:16:24.926Z,3.67
2018-09-21T17:18:53.201Z,2.53
2018-09-21T17:21:21.377Z,2.93
2018-09-21T17:23:49.542Z,1.87
2018-09-21T17:26:17.718Z,3.60
2018-09-21T17:28:46.270Z,1.83
2018-09-21T17:31:15.653Z,3.53
2018-09-21T17:33:43.837Z,1.90
2018-09-21T17:36:11.984Z,1.67
2018-09-21T17:38:40.166Z,2.60
2018-09-21T17:41:08.794Z,2.27
2018-09-21T17:43:36.966Z,3.97
2018-09-21T17:46:05.146Z,3.23
2018-09-21T17:48:33.382Z,2.27
2018-09-21T17:51:01.543Z,2.87
2018-09-21T17:53:30.474Z,1.23
2018-09-21T17:56:00.673Z,2.50
2018-09-21T17:58:29.013Z,1.20
2018-09-21T18:00:57.216Z,0.70
2018-09-21T18:03:25.406Z,3.40
2018-09-21T18:05:53.550Z,1.93
2018-09-21T18:08:21.776Z,3.23
2018-09-21T18:10:49.974Z,1.93
2018-09-21T18:13:18.338Z,1.90
2018-09-21T18:15:46.556Z,1.10
2018-09-21T18:18:14.726Z,1.17
2018-09-21T18:20:42.918Z,3.50
2018-09-21T18:23:11.083Z,1.40
2018-09-21T18:25:39.744Z,2.73
2018-09-21T18:28:07.882Z,3.40
2018-09-21T18:30:36.101Z,0.70
2018-09-21T18:33:04.294Z,1.17
2018-09-21T18:35:32.494Z,3.67
2018-09-21T18:38:00.710Z,2.23
2018-09-21T18:40:28.886Z,0.73
2018-09-21T18:42:58.662Z,1.00
2018-09-21T18:45:26.901Z,1.33
2018-09-21T18:47:55.126Z,0.50
2018-09-21T18:50:23.305Z,1.70
2018-09-21T18:52:51.867Z,3.93
2018-09-21T18:55:20.113Z,2.43
2018-09-21T18:57:48.286Z,1.50
2018-09-21T19:00:16.629Z,4.00
2018-09-21T19:02:44.974Z,1.80
2018-09-21T19:05:13.190Z,2.20
2018-09-21T19:07:41.422Z,5.00
2018-09-21T19:10:09.777Z,0.87
2018-09-21T19:12:38.007Z,0.53
2018-09-21T19:15:06.250Z,2.23
2018-09-21T19:17:35.014Z,2.73
2018-09-21T19:20:03.354Z,1.90
2018-09-21T19:22:31.542Z,0.80
2018-09-21T19:25:00.290Z,0.50
2018-09-21T19:27:28.492Z,1.80
2018-09-21T19:29:56.715Z,1.60
2018-09-21T19:32:24.943Z,1.10
2018-09-21T19:34:53.190Z,3.10
2018-09-21T19:37:21.417Z,0.87
2018-09-21T19:39:49.650Z,1.23
2018-09-21T19:42:17.835Z,2.20
2018-09-21T19:44:46.108Z,1.60
2018-09-21T19:47:14.275Z,1.27
2018-09-21T19:49:42.476Z,1.43
2018-09-21T19:52:10.646Z,1.90
2018-09-21T19:54:38.836Z,2.93
2018-09-21T19:57:07.038Z,1.27
2018-09-21T19:59:35.902Z,0.90
2018-09-21T20:02:04.039Z,4.20
2018-09-21T20:04:33.094Z,1.57
2018-09-21T20:07:01.554Z,1.90
2018-09-21T20:09:30.018Z,5.00
2018-09-21T20:11:58.204Z,1.87
2018-09-21T20:14:26.407Z,2.73
2018-09-21T20:16:54.637Z,0.90
2018-09-21T20:19:22.798Z,1.60
2018-09-21T20:21:51.034Z,2.50
2018-09-21T20:24:19.226Z,1.80
2018-09-21T20:26:47.414Z,0.77
2018-09-21T20:29:15.682Z,3.37
2018-09-21T20:31:49.406Z,1.07
2018-09-21T20:34:17.684Z,3.17
2018-09-21T20:36:45.983Z,0.50
2018-09-21T20:39:14.195Z,3.70
2018-09-21T20:41:42.470Z,3.53
2018-09-21T20:44:10.640Z,2.30
2018-09-21T20:46:40.433Z,0.87
2018-09-21T20:49:08.686Z,2.17
2018-09-21T20:51:36.866Z,2.63
2018-09-21T20:54:05.014Z,2.47
2018-09-21T20:56:35.066Z,1.40
2018-09-21T20:59:03.279Z,1.47
2018-09-21T21:01:31.484Z,2.00
2018-09-21T21:03:59.822Z,2.70
2018-09-21T21:06:28.006Z,2.73
2018-09-21T21:08:56.183Z,4.63
2018-09-21T21:11:24.351Z,0.63
2018-09-21T21:13:54.178Z,0.70
2018-09-21T21:16:22.380Z,1.97
2018-09-21T21:18:50.592Z,1.83
2018-09-21T21:21:19.111Z,1.80
2018-09-21T21:23:47.306Z,1.63
2018-09-21T21:26:15.521Z,1.07
2018-09-21T21:28:43.747Z,1.63
2018-09-21T21:31:11.942Z,2.10
2018-09-21T21:33:40.091Z,2.60
2018-09-21T21:36:08.303Z,0.70
2018-09-21T21:38:36.586Z,3.17
2018-09-21T21:41:04.797Z,1.97
2018-09-21T21:43:33.482Z,2.30
2018-09-21T21:46:01.724Z,0.50
2018-09-21T21:48:29.934Z,2.57
2018-09-21T21:50:58.165Z,6.30
2018-09-21T21:53:26.339Z,2.07
2018-09-21T21:55:54.563Z,3.03
2018-09-21T21:58:22.759Z,1.33
2018-09-21T22:01:54.064Z,2.17
2018-09-21T22:04:22.291Z,3.57
2018-09-21T22:06:50.883Z,2.73
2018-09-21T22:09:19.086Z,5.40
2018-09-21T22:11:52.736Z,2.33
2018-09-21T22:14:20.923Z,2.97
2018-09-21T22:16:49.122Z,1.97
2018-09-21T22:19:17.302Z,4.40
2018-09-21T22:21:45.473Z,1.10
2018-09-21T22:24:13.626Z,2.63
2018-09-21T22:26:41.814Z,3.70
2018-09-21T22:29:10.658Z,1.73
2018-09-21T22:31:38.810Z,4.87
2018-09-21T22:34:07.016Z,3.10
2018-09-21T22:36:35.194Z,1.43
2018-09-21T22:39:03.693Z,3.70
2018-09-21T22:41:31.886Z,5.13
2018-09-21T22:44:00.222Z,3.47
2018-09-21T22:46:28.422Z,3.67
2018-09-21T22:48:57.028Z,3.00
2018-09-21T22:51:25.254Z,2.53
2018-09-21T22:53:53.462Z,2.20
2018-09-21T22:56:21.917Z,3.40
2018-09-21T22:58:50.108Z,4.73
2018-09-21T23:01:18.261Z,3.87
2018-09-21T23:03:46.682Z,1.93
2018-09-21T23:06:14.894Z,7.47
2018-09-21T23:08:43.125Z,5.83
2018-09-21T23:11:11.301Z,2.60
2018-09-21T23:13:39.437Z,4.07
2018-09-21T23:16:07.653Z,4.80
2018-09-21T23:18:36.171Z,1.93
2018-09-21T23:21:04.347Z,2.83
2018-09-21T23:23:32.549Z,4.17
2018-09-21T23:26:01.024Z,1.60
2018-09-21T23:28:29.209Z,3.00
2018-09-21T23:30:58.322Z,1.80
2018-09-21T23:33:26.511Z,2.77
2018-09-21T23:35:54.686Z,7.20
2018-09-21T23:38:22.890Z,4.80
2018-09-21T23:40:51.078Z,6.33
2018-09-21T23:43:19.254Z,4.23
2018-09-21T23:45:47.460Z,2.93
2018-09-21T23:48:15.662Z,4.23
2018-09-21T23:50:43.841Z,3.60
2018-09-21T23:53:12.383Z,1.57
2018-09-21T23:55:40.625Z,5.47
2018-09-21T23:58:08.820Z,4.73
